Terminal Aerodrome Forecast
Issued by NWS Melbourne, FL

Home | Current Version | Previous Version | Text Only | Print | Product List | Glossary On
Versions: 1 2 3 4 5 6 7 8 9 10 11 12 13 14 15
601
FTUS42 KMLB 300529
TAFDAB
TAF
KDAB 300529Z 3006/3106 22003KT P6SM FEW035 FEW090 SCT200
     FM301400 29006KT P6SM SCT025
     FM301700 06009KT P6SM SCT040 BKN250
     FM302000 10009KT P6SM FEW040 SCT100 SCT250
     FM310000 12006KT P6SM FEW030 BKN120=

USA.gov is the U.S. government's official web portal to all federal, state and local government web resources and services.